Terminal Aerodrome Forecast
Issued by NWS

Home | Current Version | Previous Version | Text Only | Print | Product List | Glossary On
Versions: 1 2 3 4 5 6 7 8 9 10 11 12 13 14 15 16 17 18 19 20 21 22 23 24 25 26 27 28 29 30 31 32 33 34 35 36 37
399
FTUS43 KDVN 291120
TAFBRL
TAF
KBRL 291120Z 2912/3012 36008KT 4SM BR OVC005
      TEMPO 2912/2913 3SM BR OVC007
     FM291300 36008KT 5SM BR OVC007
     FM291500 03008KT 6SM BR OVC007
     FM291900 06008KT P6SM SCT007 BKN025
     FM300000 07011KT P6SM SCT025 OVC120
     FM300900 07015KT 6SM -RA BR OVC030=

USA.gov is the U.S. government's official web portal to all federal, state and local government web resources and services.